Time;durP1;ratioP1;P1;durP2;ratioP2;P2;SDS_P1;SDS_P2;PMS_P1;PMS_P2;Temp;Humidity;BMP_temperature;BMP_pressure;BME280_temperature;BME280_humidity;BME280_pressure;Samples;Min_cycle;Max_cycle;Signal;HPM_P1;HPM_P2
2022/03/01 00:02:28;;;;;;;15.80;13.13;;;3.00;99.90;;;;;;4999805;28;20565;-77
2022/03/01 00:04:54;;;;;;;16.00;12.90;;;3.00;99.90;;;;;;4998280;28;20077;-77
2022/03/01 00:07:20;;;;;;;16.30;12.73;;;3.00;99.90;;;;;;4954916;28;20074;-77
2022/03/01 00:09:45;;;;;;;15.33;12.83;;;3.00;99.90;;;;;;4992914;28;20670;-77
2022/03/01 00:12:11;;;;;;;17.50;12.83;;;3.00;99.90;;;;;;4964398;28;20115;-77
2022/03/01 00:14:37;;;;;;;17.10;13.17;;;3.00;99.90;;;;;;4996303;28;20081;-77
2022/03/01 00:17:03;;;;;;;15.57;12.97;;;3.00;99.90;;;;;;4995589;28;20121;-77
2022/03/01 00:19:29;;;;;;;14.93;12.43;;;3.00;99.90;;;;;;5005997;28;20041;-77
2022/03/01 00:21:57;;;;;;;15.27;13.03;;;3.00;99.90;;;;;;4996990;28;20037;-77
2022/03/01 00:24:22;;;;;;;16.23;12.93;;;3.00;99.90;;;;;;4988366;28;20042;-77
2022/03/01 00:26:48;;;;;;;14.97;12.03;;;3.00;99.90;;;;;;4992949;28;20269;-77
2022/03/01 00:29:14;;;;;;;17.13;12.20;;;3.10;99.90;;;;;;4988740;28;20117;-78
2022/03/01 00:31:40;;;;;;;15.20;12.30;;;3.00;99.90;;;;;;4989504;28;20408;-78
2022/03/01 00:34:06;;;;;;;15.63;12.47;;;3.00;99.90;;;;;;4998895;28;20128;-78
2022/03/01 00:36:32;;;;;;;15.57;11.80;;;3.00;99.90;;;;;;4983761;28;20038;-77
2022/03/01 00:38:58;;;;;;;15.27;12.43;;;3.00;99.90;;;;;;4977584;28;20508;-77
2022/03/01 00:41:24;;;;;;;16.37;12.67;;;3.00;99.90;;;;;;4991113;28;20073;-77
2022/03/01 00:43:50;;;;;;;14.83;12.07;;;2.90;99.90;;;;;;5006635;28;20034;-77
2022/03/01 00:46:17;;;;;;;16.00;12.87;;;3.00;99.90;;;;;;5003844;28;20953;-77
2022/03/01 00:48:43;;;;;;;18.83;13.10;;;2.90;99.90;;;;;;4989990;28;20124;-77
2022/03/01 00:51:10;;;;;;;15.67;12.53;;;2.90;99.90;;;;;;4985271;28;20206;-77
2022/03/01 00:53:36;;;;;;;15.93;13.70;;;2.90;99.90;;;;;;5003698;28;20081;-78
2022/03/01 00:56:05;;;;;;;15.87;13.30;;;2.90;99.90;;;;;;4984741;28;20038;-78
2022/03/01 00:58:33;;;;;;;15.10;12.60;;;2.80;99.90;;;;;;4988450;28;20177;-77
2022/03/01 01:00:58;;;;;;;15.60;13.20;;;2.80;99.90;;;;;;4986776;28;20034;-78
2022/03/01 01:03:25;;;;;;;17.30;12.67;;;2.80;99.90;;;;;;4988311;28;20052;-77
2022/03/01 01:05:50;;;;;;;16.13;13.13;;;2.80;99.90;;;;;;4976281;28;20037;-78
2022/03/01 01:08:16;;;;;;;15.73;12.57;;;2.70;99.90;;;;;;4984260;28;20065;-78
2022/03/01 01:10:42;;;;;;;14.37;12.33;;;2.70;99.90;;;;;;4984315;28;20030;-77
2022/03/01 01:13:08;;;;;;;18.17;13.13;;;2.80;99.90;;;;;;5003097;28;20762;-78
2022/03/01 01:15:34;;;;;;;15.67;12.63;;;2.70;99.90;;;;;;5000907;28;20065;-77
2022/03/01 01:18:00;;;;;;;17.10;13.73;;;2.60;99.90;;;;;;5000319;28;20054;-77
2022/03/01 01:20:26;;;;;;;18.10;13.00;;;2.60;99.90;;;;;;4984136;28;20528;-78
2022/03/01 01:22:52;;;;;;;15.77;12.97;;;2.60;99.90;;;;;;5002822;28;20053;-77
2022/03/01 01:25:23;;;;;;;15.90;13.63;;;2.60;99.90;;;;;;4986267;28;20507;-76
2022/03/01 01:27:52;;;;;;;15.23;12.97;;;2.60;99.90;;;;;;4991890;28;20180;-76
2022/03/01 01:30:21;;;;;;;15.93;12.70;;;2.60;99.90;;;;;;4992620;28;20045;-77
2022/03/01 01:32:48;;;;;;;15.20;12.73;;;2.60;99.90;;;;;;4994624;28;20053;-76
2022/03/01 01:35:15;;;;;;;16.03;12.63;;;2.60;99.90;;;;;;4986176;28;20121;-76
2022/03/01 01:37:42;;;;;;;15.50;13.47;;;2.60;99.90;;;;;;4994607;28;20093;-78
2022/03/01 01:40:11;;;;;;;16.37;12.07;;;2.60;99.90;;;;;;4978835;28;20076;-77
2022/03/01 01:42:37;;;;;;;14.97;12.67;;;2.60;99.90;;;;;;4991593;28;20135;-77
2022/03/01 01:45:04;;;;;;;14.47;11.93;;;2.60;99.90;;;;;;4977504;28;20825;-77
2022/03/01 01:47:30;;;;;;;15.80;12.60;;;2.60;99.90;;;;;;4979123;28;20050;-77
2022/03/01 01:49:56;;;;;;;14.57;12.27;;;2.60;99.90;;;;;;4994703;28;20033;-77
2022/03/01 01:52:24;;;;;;;18.07;12.87;;;2.60;99.90;;;;;;4999929;28;20076;-77
2022/03/01 01:54:50;;;;;;;15.33;12.20;;;2.60;99.90;;;;;;4974924;28;20125;-77
2022/03/01 01:57:19;;;;;;;15.63;12.63;;;2.60;99.90;;;;;;4995882;28;20572;-77
2022/03/01 01:59:47;;;;;;;16.93;12.00;;;2.60;99.90;;;;;;4987589;28;20038;-77
2022/03/01 02:02:14;;;;;;;15.77;13.10;;;2.60;99.90;;;;;;5001140;28;20053;-77
2022/03/01 02:04:41;;;;;;;16.07;13.23;;;2.50;99.90;;;;;;4983699;28;20056;-79
2022/03/01 02:07:07;;;;;;;16.20;12.73;;;2.50;99.90;;;;;;4981385;28;20117;-76
2022/03/01 02:09:33;;;;;;;15.30;12.40;;;2.50;99.90;;;;;;4994538;28;20061;-76
2022/03/01 02:11:59;;;;;;;16.70;12.30;;;2.50;99.90;;;;;;5017537;28;20155;-76
2022/03/01 02:14:30;;;;;;;15.87;12.60;;;2.50;99.90;;;;;;4969182;28;20102;-76
2022/03/01 02:16:56;;;;;;;;;;;2.50;99.90;;;;;;4999062;28;20046;-77
2022/03/01 02:19:21;;;;;;;14.37;12.87;;;2.50;99.90;;;;;;4981830;28;19933;-76
2022/03/01 02:21:54;;;;;;;15.13;13.10;;;2.40;99.90;;;;;;4978936;28;20046;-77
2022/03/01 02:24:21;;;;;;;15.00;12.87;;;2.40;99.90;;;;;;4978076;28;20049;-76
2022/03/01 02:26:47;;;;;;;14.10;11.97;;;2.40;99.90;;;;;;4984188;28;20128;-76
2022/03/01 02:29:13;;;;;;;15.93;12.97;;;2.40;99.90;;;;;;4995332;28;20189;-76
2022/03/01 02:31:39;;;;;;;17.33;13.87;;;2.30;99.90;;;;;;5003235;28;20038;-77
2022/03/01 02:34:05;;;;;;;15.73;13.13;;;2.30;99.90;;;;;;4972964;28;20046;-77
2022/03/01 02:36:31;;;;;;;16.50;12.53;;;2.30;99.90;;;;;;4983732;28;20193;-77
2022/03/01 02:38:57;;;;;;;16.47;13.00;;;2.30;99.90;;;;;;4980813;28;20129;-76
2022/03/01 02:41:25;;;;;;;17.00;13.67;;;2.20;99.90;;;;;;4983634;28;20041;-76
2022/03/01 02:43:53;;;;;;;17.25;14.25;;;2.20;99.90;;;;;;4991253;28;20068;-78
2022/03/01 02:46:19;;;;;;;15.57;12.70;;;2.20;99.90;;;;;;4988961;28;20045;-78
2022/03/01 02:48:48;;;;;;;17.60;14.23;;;2.10;99.90;;;;;;4984179;28;20425;-77
2022/03/01 02:51:14;;;;;;;16.23;13.00;;;2.10;99.90;;;;;;4992103;28;20516;-77
2022/03/01 02:53:40;;;;;;;18.40;13.50;;;2.10;99.90;;;;;;4996580;28;20081;-77
2022/03/01 02:56:07;;;;;;;17.13;14.17;;;2.10;99.90;;;;;;4965029;28;20073;-77
2022/03/01 02:58:32;;;;;;;17.93;14.00;;;2.00;99.90;;;;;;4973752;28;20081;-77
2022/03/01 03:00:58;;;;;;;15.70;12.93;;;2.00;99.90;;;;;;4981609;28;20465;-78
2022/03/01 03:03:24;;;;;;;14.67;12.60;;;2.00;99.90;;;;;;4982204;28;20060;-78
2022/03/01 03:05:50;;;;;;;16.33;14.23;;;2.10;99.90;;;;;;4974023;28;20304;-77
2022/03/01 03:08:15;;;;;;;15.60;13.03;;;2.10;99.90;;;;;;4990252;28;20393;-77
2022/03/01 03:10:41;;;;;;;17.00;13.47;;;2.10;99.90;;;;;;4974516;28;20447;-77
2022/03/01 03:13:07;;;;;;;17.03;13.50;;;2.10;99.90;;;;;;4972756;28;20042;-78
2022/03/01 03:15:33;;;;;;;16.33;13.67;;;2.20;99.90;;;;;;4958562;28;20260;-77
2022/03/01 03:17:59;;;;;;;16.73;14.07;;;2.10;99.90;;;;;;4990883;28;20038;-76
2022/03/01 03:20:29;;;;;;;15.23;13.47;;;2.10;99.90;;;;;;4992180;28;20050;-77
2022/03/01 03:22:54;;;;;;;16.95;13.77;;;2.20;99.90;;;;;;5003742;28;20443;-77
2022/03/01 03:25:20;;;;;;;14.80;13.00;;;2.20;99.90;;;;;;4992529;28;20105;-77
2022/03/01 03:27:46;;;;;;;16.23;13.47;;;2.20;99.90;;;;;;4980580;28;20046;-77
2022/03/01 03:30:12;;;;;;;17.43;14.30;;;2.20;99.90;;;;;;4980032;28;20390;-77
2022/03/01 03:32:38;;;;;;;17.20;13.37;;;2.20;99.90;;;;;;4984970;28;20030;-77
2022/03/01 03:35:05;;;;;;;18.70;13.90;;;2.20;99.90;;;;;;4983026;28;20494;-78
2022/03/01 03:37:31;;;;;;;18.80;14.67;;;2.20;99.90;;;;;;4965456;28;20038;-76
2022/03/01 03:39:57;;;;;;;17.97;15.13;;;2.20;99.90;;;;;;4972649;28;21085;-76
2022/03/01 03:42:23;;;;;;;16.27;13.80;;;2.10;99.90;;;;;;5006216;28;20137;-77
2022/03/01 03:44:49;;;;;;;18.77;15.47;;;2.20;99.90;;;;;;4994317;28;20077;-77
2022/03/01 03:47:15;;;;;;;18.57;14.57;;;2.10;99.90;;;;;;4993457;28;20073;-77
2022/03/01 03:49:41;;;;;;;16.90;14.20;;;2.20;99.90;;;;;;4992729;28;20113;-78
2022/03/01 03:52:07;;;;;;;18.27;15.13;;;2.20;99.90;;;;;;4994932;28;20053;-78
2022/03/01 03:54:33;;;;;;;16.97;14.50;;;2.20;99.90;;;;;;5003190;28;20053;-78
2022/03/01 03:56:59;;;;;;;16.33;13.33;;;2.20;99.90;;;;;;4981237;28;20135;-78
2022/03/01 03:59:25;;;;;;;17.53;13.97;;;2.30;99.90;;;;;;4998440;28;20068;-78
2022/03/01 04:01:52;;;;;;;19.27;14.60;;;2.30;99.90;;;;;;4963624;28;20077;-77
2022/03/01 04:04:18;;;;;;;16.40;14.27;;;2.30;99.90;;;;;;5010938;28;20042;-77
2022/03/01 04:06:44;;;;;;;17.60;14.47;;;2.30;99.90;;;;;;4981702;28;20125;-77
2022/03/01 04:09:10;;;;;;;18.97;14.67;;;2.30;99.90;;;;;;4982767;28;20117;-76
2022/03/01 04:11:36;;;;;;;19.10;14.90;;;2.30;99.90;;;;;;4968620;28;20038;-79
2022/03/01 04:14:02;;;;;;;17.33;14.53;;;2.40;99.90;;;;;;4990136;28;20043;-78
2022/03/01 04:16:28;;;;;;;18.23;14.70;;;2.40;99.90;;;;;;4977181;28;20054;-78
2022/03/01 04:18:58;;;;;;;19.30;14.87;;;2.30;99.90;;;;;;5005292;28;20041;-77
2022/03/01 04:21:24;;;;;;;22.10;15.53;;;2.40;99.90;;;;;;5001477;28;20576;-78
2022/03/01 04:23:49;;;;;;;18.70;15.40;;;2.30;99.90;;;;;;4998199;28;20072;-78
2022/03/01 04:26:15;;;;;;;21.40;15.37;;;2.30;99.90;;;;;;4982223;28;20161;-78
2022/03/01 04:28:42;;;;;;;18.10;15.03;;;2.30;99.90;;;;;;4999658;28;20041;-78
2022/03/01 04:31:08;;;;;;;18.00;14.83;;;2.30;99.90;;;;;;4988022;28;20038;-78
2022/03/01 04:33:34;;;;;;;19.07;15.50;;;2.20;99.90;;;;;;4977421;28;20393;-79
2022/03/01 04:36:02;;;;;;;17.30;14.00;;;2.20;99.90;;;;;;5002470;28;20054;-78
2022/03/01 04:38:29;;;;;;;17.73;14.80;;;2.20;99.90;;;;;;5002284;28;20049;-79
2022/03/01 04:41:01;;;;;;;17.97;15.37;;;2.20;99.90;;;;;;5007165;28;20050;-78
2022/03/01 04:43:27;;;;;;;18.23;15.00;;;2.20;99.90;;;;;;4983602;28;20077;-79
2022/03/01 04:45:53;;;;;;;20.00;14.93;;;2.20;99.90;;;;;;4989206;28;20136;-78
2022/03/01 04:48:19;;;;;;;16.93;15.10;;;2.30;99.90;;;;;;4989694;28;20511;-78
2022/03/01 04:50:45;;;;;;;18.43;14.80;;;2.30;99.90;;;;;;4990448;28;20795;-78
2022/03/01 04:53:11;;;;;;;18.43;14.37;;;2.30;99.90;;;;;;4975622;28;20045;-78
2022/03/01 04:55:37;;;;;;;18.00;14.60;;;2.30;99.90;;;;;;4990711;28;20109;-78
2022/03/01 04:58:03;;;;;;;18.97;15.97;;;2.20;99.90;;;;;;4980898;28;20041;-78
2022/03/01 05:00:29;;;;;;;18.57;15.00;;;2.20;99.90;;;;;;4971882;28;20042;-78
2022/03/01 05:02:58;;;;;;;18.07;15.47;;;2.30;99.90;;;;;;4990977;28;20128;-78
2022/03/01 05:05:24;;;;;;;17.57;15.20;;;2.30;99.90;;;;;;4977674;28;20056;-78
2022/03/01 05:07:49;;;;;;;18.23;15.10;;;2.20;99.90;;;;;;4972651;28;20133;-78
2022/03/01 05:10:21;;;;;;;20.90;15.97;;;2.30;99.90;;;;;;4972185;28;20564;-79
2022/03/01 05:12:48;;;;;;;21.50;15.80;;;2.30;99.90;;;;;;4988200;28;20065;-78
2022/03/01 05:15:15;;;;;;;18.07;15.67;;;2.30;99.90;;;;;;4972323;28;20050;-79
2022/03/01 05:17:41;;;;;;;20.00;15.23;;;2.30;99.90;;;;;;4956397;28;20128;-78
2022/03/01 05:20:08;;;;;;;18.83;15.07;;;2.40;99.90;;;;;;4988265;28;20524;-78
2022/03/01 05:22:35;;;;;;;18.27;15.13;;;2.30;99.90;;;;;;4972056;28;20475;-77
2022/03/01 05:25:01;;;;;;;19.63;15.83;;;2.40;99.90;;;;;;4972650;28;20050;-77
2022/03/01 05:27:28;;;;;;;20.00;15.80;;;2.40;99.90;;;;;;4972327;28;20061;-76
2022/03/01 05:29:54;;;;;;;17.67;13.73;;;2.30;99.90;;;;;;4972538;28;20821;-77
2022/03/01 05:32:20;;;;;;;20.77;15.83;;;2.40;99.90;;;;;;4987955;28;20046;-77
2022/03/01 05:34:46;;;;;;;21.20;15.83;;;2.40;99.90;;;;;;4981027;28;20050;-77
2022/03/01 05:37:12;;;;;;;21.73;16.37;;;2.40;99.90;;;;;;4975444;28;20044;-76
2022/03/01 05:39:38;;;;;;;20.50;15.50;;;2.40;99.90;;;;;;5007753;28;20074;-77
2022/03/01 05:42:04;;;;;;;19.43;15.27;;;2.40;99.90;;;;;;5007894;28;20050;-77
2022/03/01 05:44:30;;;;;;;20.30;16.50;;;2.40;99.90;;;;;;4975265;28;20045;-77
2022/03/01 05:46:56;;;;;;;17.80;15.10;;;2.40;99.90;;;;;;5001329;28;20137;-79
2022/03/01 05:49:22;;;;;;;18.97;15.13;;;2.40;99.90;;;;;;4971824;28;20056;-76
2022/03/01 05:51:48;;;;;;;19.07;16.30;;;2.40;99.90;;;;;;4985984;28;20050;-77
2022/03/01 05:54:14;;;;;;;18.87;15.13;;;2.40;99.90;;;;;;4986693;28;20126;-77
2022/03/01 05:56:40;;;;;;;16.83;14.60;;;2.40;99.90;;;;;;4965707;28;20042;-76
2022/03/01 05:59:05;;;;;;;19.03;15.80;;;2.30;99.90;;;;;;4991612;28;20496;-77
2022/03/01 06:01:31;;;;;;;20.63;15.40;;;2.50;99.90;;;;;;4957440;28;20403;-77
2022/03/01 06:03:57;;;;;;;21.37;16.00;;;2.40;99.90;;;;;;4955822;28;20070;-77
2022/03/01 06:06:23;;;;;;;18.43;14.87;;;2.40;99.90;;;;;;4971156;28;20084;-76
2022/03/01 06:08:49;;;;;;;20.00;15.10;;;2.40;99.90;;;;;;4966171;28;20528;-77
2022/03/01 06:11:14;;;;;;;20.20;15.10;;;2.40;99.90;;;;;;4956134;28;20054;-77
2022/03/01 06:13:43;;;;;;;18.27;14.70;;;2.40;99.90;;;;;;4979009;28;20496;-77
2022/03/01 06:16:09;;;;;;;18.37;15.50;;;2.40;99.90;;;;;;4981883;28;20045;-77
2022/03/01 06:18:35;;;;;;;20.07;15.93;;;2.40;99.90;;;;;;4998584;28;20038;-78
2022/03/01 06:21:01;;;;;;;17.67;14.77;;;2.40;99.90;;;;;;4975359;28;20456;-77
2022/03/01 06:23:28;;;;;;;20.43;16.07;;;2.40;99.90;;;;;;5001956;28;20104;-77
2022/03/01 06:25:54;;;;;;;18.67;15.57;;;2.40;99.90;;;;;;4990861;28;20085;-77
2022/03/01 06:28:20;;;;;;;19.50;14.73;;;2.40;99.90;;;;;;4959085;28;20046;-77
2022/03/01 06:30:46;;;;;;;16.43;14.10;;;2.50;99.90;;;;;;4998306;28;20245;-77
2022/03/01 06:33:17;;;;;;;20.07;15.93;;;2.50;99.90;;;;;;4997194;28;20510;-77
2022/03/01 06:35:44;;;;;;;20.13;15.53;;;2.50;99.90;;;;;;4967008;28;20045;-77
2022/03/01 06:38:10;;;;;;;20.23;15.90;;;2.50;99.90;;;;;;4973784;28;20053;-77
2022/03/01 06:40:36;;;;;;;18.10;15.03;;;2.50;99.90;;;;;;4961024;28;20041;-76
2022/03/01 06:43:02;;;;;;;19.83;15.27;;;2.50;99.90;;;;;;4991383;28;20045;-75
2022/03/01 06:45:28;;;;;;;18.37;15.10;;;2.60;99.90;;;;;;4988463;28;20046;-78
2022/03/01 06:47:54;;;;;;;18.80;15.77;;;2.60;99.90;;;;;;4972652;28;20034;-76
2022/03/01 06:50:20;;;;;;;20.00;16.20;;;2.60;99.90;;;;;;4990281;28;20046;-76
2022/03/01 06:52:46;;;;;;;20.37;16.37;;;2.60;99.90;;;;;;4991371;28;20872;-76
2022/03/01 06:55:13;;;;;;;20.57;16.47;;;2.60;99.90;;;;;;4976125;28;20046;-76
2022/03/01 06:57:40;;;;;;;20.10;16.87;;;2.60;99.90;;;;;;4982498;28;20567;-76
2022/03/01 07:00:08;;;;;;;18.13;14.03;;;2.60;99.90;;;;;;4983935;28;20481;-76
2022/03/01 07:02:38;;;;;;;21.10;15.83;;;2.60;99.90;;;;;;4988525;28;20038;-77
2022/03/01 07:05:09;;;;;;;20.15;15.52;;;2.60;99.90;;;;;;4965081;28;20065;-76
2022/03/01 07:07:35;;;;;;;18.93;15.90;;;2.70;99.90;;;;;;4978127;28;20048;-76
2022/03/01 07:10:02;;;;;;;21.30;15.80;;;2.70;99.90;;;;;;4977537;28;20046;-76
2022/03/01 07:12:28;;;;;;;19.30;15.57;;;2.80;99.90;;;;;;4959840;28;20127;-76
2022/03/01 07:14:54;;;;;;;21.77;16.77;;;2.70;99.90;;;;;;4965401;28;20500;-77
2022/03/01 07:17:20;;;;;;;20.10;16.13;;;2.70;99.90;;;;;;4970669;28;20041;-76
2022/03/01 07:19:46;;;;;;;19.83;15.73;;;2.90;99.90;;;;;;4993903;28;20045;-76
2022/03/01 07:22:12;;;;;;;21.37;16.53;;;2.80;99.90;;;;;;4961729;28;20467;-76
2022/03/01 07:24:38;;;;;;;19.30;15.10;;;2.90;99.90;;;;;;4959504;28;20046;-76
2022/03/01 07:27:03;;;;;;;20.77;16.77;;;2.90;99.90;;;;;;4940475;28;20061;-76
2022/03/01 07:29:32;;;;;;;19.90;16.00;;;2.90;99.90;;;;;;4970923;28;20374;-76
2022/03/01 07:31:58;;;;;;;19.83;16.23;;;2.90;99.90;;;;;;4993631;28;20458;-76
2022/03/01 07:34:24;;;;;;;19.73;16.23;;;3.00;99.90;;;;;;4971879;28;20100;-77
2022/03/01 07:36:50;;;;;;;19.33;16.47;;;3.10;99.90;;;;;;5000559;28;20125;-77
2022/03/01 07:39:16;;;;;;;21.23;16.67;;;3.10;99.90;;;;;;4994662;28;20152;-76
2022/03/01 07:41:42;;;;;;;22.00;17.97;;;3.20;99.90;;;;;;5018483;28;20058;-76
2022/03/01 07:44:08;;;;;;;20.97;16.93;;;3.20;99.90;;;;;;4995729;28;20235;-75
2022/03/01 07:46:33;;;;;;;19.43;15.83;;;3.30;99.90;;;;;;4956324;28;20038;-77
2022/03/01 07:48:59;;;;;;;17.87;15.80;;;3.30;99.90;;;;;;4972357;28;20053;-75
2022/03/01 07:51:28;;;;;;;21.40;16.77;;;3.30;99.90;;;;;;4958214;28;20050;-76
2022/03/01 07:53:54;;;;;;;19.53;16.27;;;3.40;99.90;;;;;;4976532;28;20042;-76
2022/03/01 07:56:21;;;;;;;21.13;17.30;;;3.40;99.90;;;;;;4964197;28;20037;-76
2022/03/01 07:58:48;;;;;;;18.87;16.80;;;3.50;99.90;;;;;;4977906;28;20046;-76
2022/03/01 08:01:14;;;;;;;22.53;17.53;;;3.50;99.90;;;;;;4972663;28;20049;-77
2022/03/01 08:03:40;;;;;;;20.10;16.17;;;3.50;99.90;;;;;;4980867;28;20108;-76
2022/03/01 08:06:06;;;;;;;21.33;16.33;;;3.50;99.90;;;;;;4971695;28;20042;-76
2022/03/01 08:08:32;;;;;;;20.93;16.50;;;3.60;99.90;;;;;;4972104;28;20061;-76
2022/03/01 08:10:58;;;;;;;20.30;16.87;;;3.60;99.90;;;;;;4955267;28;20603;-75
2022/03/01 08:13:24;;;;;;;21.43;17.67;;;3.60;99.90;;;;;;4987507;28;20058;-75
2022/03/01 08:15:50;;;;;;;20.10;16.57;;;3.60;99.90;;;;;;4989751;28;20073;-76
2022/03/01 08:18:17;;;;;;;21.60;17.37;;;3.70;99.90;;;;;;5014467;28;20131;-76
2022/03/01 08:20:43;;;;;;;19.57;16.57;;;3.60;99.90;;;;;;4991225;28;20469;-76
2022/03/01 08:23:09;;;;;;;23.20;17.63;;;3.60;99.90;;;;;;5005293;28;20524;-75
2022/03/01 08:25:38;;;;;;;21.00;17.60;;;3.70;99.90;;;;;;4975428;28;20416;-75
2022/03/01 08:28:05;;;;;;;20.50;16.30;;;3.70;99.90;;;;;;4971036;28;20397;-75
2022/03/01 08:30:31;;;;;;;22.17;16.70;;;3.70;99.90;;;;;;4983085;28;20462;-76
2022/03/01 08:32:57;;;;;;;19.97;17.10;;;3.80;99.90;;;;;;4989969;28;20382;-75
2022/03/01 08:35:23;;;;;;;21.70;17.20;;;3.80;99.90;;;;;;4979701;28;20061;-75
2022/03/01 08:37:51;;;;;;;19.47;16.60;;;3.90;99.90;;;;;;4973492;28;20046;-75
2022/03/01 08:40:19;;;;;;;19.23;16.60;;;3.90;99.90;;;;;;4977103;28;20054;-75
2022/03/01 08:42:46;;;;;;;22.90;17.73;;;4.00;99.90;;;;;;4972521;28;20050;-75
2022/03/01 08:45:12;;;;;;;21.53;17.20;;;4.00;99.90;;;;;;4988499;28;20050;-76
2022/03/01 08:47:38;;;;;;;21.40;17.07;;;4.10;99.90;;;;;;4957506;28;20053;-76
2022/03/01 08:50:05;;;;;;;20.88;16.77;;;4.10;99.90;;;;;;4978810;28;20046;-76
2022/03/01 08:52:31;;;;;;;20.63;16.60;;;4.20;99.90;;;;;;4986780;28;20395;-76
2022/03/01 08:54:56;;;;;;;19.55;16.15;;;4.30;99.90;;;;;;4992262;28;20050;-76
2022/03/01 08:57:22;;;;;;;19.27;16.42;;;4.40;99.90;;;;;;4950949;28;20046;-76
2022/03/01 08:59:48;;;;;;;21.30;17.23;;;4.50;99.90;;;;;;4974474;28;20132;-75
2022/03/01 09:02:17;;;;;;;21.42;17.77;;;4.60;99.90;;;;;;4990051;28;20042;-75
2022/03/01 09:04:44;;;;;;;21.83;17.35;;;4.70;99.90;;;;;;4973291;28;20527;-76
2022/03/01 09:07:09;;;;;;;20.65;17.15;;;4.70;99.90;;;;;;4968067;28;20175;-76
2022/03/01 09:09:35;;;;;;;21.33;17.75;;;4.70;99.90;;;;;;4975806;28;20472;-76
2022/03/01 09:12:02;;;;;;;20.42;17.13;;;4.80;99.90;;;;;;4972251;28;20181;-76
2022/03/01 09:14:27;;;;;;;21.38;16.88;;;4.80;99.90;;;;;;4987780;28;20437;-76
2022/03/01 09:16:53;;;;;;;22.23;17.38;;;4.90;99.90;;;;;;4994673;28;20062;-76
2022/03/01 09:19:19;;;;;;;20.77;17.45;;;5.00;99.90;;;;;;4974105;28;20516;-76
2022/03/01 09:21:45;;;;;;;21.45;16.92;;;5.10;99.90;;;;;;4968297;28;20038;-76
2022/03/01 09:24:11;;;;;;;22.83;16.58;;;5.20;99.90;;;;;;4984707;28;20050;-76
2022/03/01 09:26:37;;;;;;;20.75;17.45;;;5.20;99.90;;;;;;4980791;28;20046;-76
2022/03/01 09:29:03;;;;;;;20.48;17.08;;;5.30;99.90;;;;;;4988476;28;20050;-76
2022/03/01 09:31:29;;;;;;;20.17;16.70;;;5.50;99.90;;;;;;4976452;28;20663;-76
2022/03/01 09:33:54;;;;;;;22.85;17.48;;;5.60;99.90;;;;;;4974633;28;20065;-76
2022/03/01 09:36:20;;;;;;;21.17;17.58;;;5.70;99.90;;;;;;4962223;28;20041;-76
2022/03/01 09:38:46;;;;;;;19.50;17.17;;;5.80;99.90;;;;;;4974341;28;20089;-77
2022/03/01 09:41:13;;;;;;;21.88;17.35;;;5.90;99.90;;;;;;4975705;28;20060;-76
2022/03/01 09:43:40;;;;;;;20.52;17.20;;;6.00;99.90;;;;;;4985982;28;20066;-77
2022/03/01 09:46:07;;;;;;;22.10;17.15;;;6.10;99.90;;;;;;4985456;28;20043;-77
2022/03/01 09:48:37;;;;;;;21.88;16.92;;;6.20;99.90;;;;;;4981920;28;20073;-77
2022/03/01 09:51:04;;;;;;;19.98;16.98;;;6.20;99.90;;;;;;4975726;28;20046;-77
2022/03/01 09:53:30;;;;;;;22.48;17.55;;;6.30;99.90;;;;;;4990791;28;20038;-78
2022/03/01 09:56:04;;;;;;;21.92;16.58;;;6.30;99.90;;;;;;4945576;28;20630;-77
2022/03/01 09:58:30;;;;;;;21.30;17.63;;;6.30;99.20;;;;;;4980961;28;20555;-78
2022/03/01 10:00:59;;;;;;;25.45;17.98;;;6.30;99.20;;;;;;4990234;28;20093;-76
2022/03/01 10:03:27;;;;;;;20.42;16.65;;;6.30;98.60;;;;;;4988753;28;20050;-76
2022/03/01 10:05:53;;;;;;;23.05;16.40;;;6.30;98.40;;;;;;4986411;28;20501;-76
2022/03/01 10:08:20;;;;;;;21.60;17.52;;;6.30;98.20;;;;;;4980243;28;20046;-76
2022/03/01 10:10:53;;;;;;;21.02;17.52;;;6.30;98.70;;;;;;4970352;28;20053;-76
2022/03/01 10:13:28;;;;;;;22.60;17.42;;;6.40;98.90;;;;;;4983379;28;20501;-75
2022/03/01 10:16:05;;;;;;;22.55;17.35;;;6.60;98.70;;;;;;4970406;28;20651;-75
2022/03/01 10:18:34;;;;;;;21.25;17.33;;;6.60;98.40;;;;;;4969238;28;20038;-75
2022/03/01 10:21:14;;;;;;;23.23;19.38;;;6.80;98.10;;;;;;4969327;28;20038;-74
2022/03/01 10:23:51;;;;;;;;;;;6.90;97.90;;;;;;4969987;28;20046;-74
2022/03/01 10:26:18;;;;;;;20.88;16.38;;;7.00;97.30;;;;;;4969820;28;19936;-74
2022/03/01 10:28:45;;;;;;;24.58;17.15;;;7.10;96.20;;;;;;5009711;28;20042;-73
2022/03/01 10:31:14;;;;;;;22.00;16.92;;;7.20;94.90;;;;;;4970315;28;20547;-74
2022/03/01 10:33:52;;;;;;;20.77;16.83;;;7.30;94.40;;;;;;4985847;28;20049;-74
2022/03/01 10:36:22;;;;;;;22.17;16.90;;;7.40;94.20;;;;;;4993463;28;20034;-74
2022/03/01 10:39:04;;;;;;;20.35;16.77;;;7.50;93.70;;;;;;4988058;28;20050;-74
2022/03/01 10:41:32;;;;;;;19.38;15.90;;;7.50;93.30;;;;;;4970254;28;20086;-74
2022/03/01 10:43:59;;;;;;;20.80;16.42;;;7.60;93.00;;;;;;4996375;28;20149;-74
2022/03/01 10:46:29;;;;;;;20.70;16.30;;;7.70;92.80;;;;;;4989083;28;20103;-74
2022/03/01 10:49:08;;;;;;;20.85;16.67;;;7.80;92.40;;;;;;4974977;28;20129;-74
2022/03/01 10:51:46;;;;;;;20.17;16.67;;;7.90;92.70;;;;;;5002486;28;20108;-74
2022/03/01 10:54:28;;;;;;;21.88;16.45;;;8.00;93.10;;;;;;4989650;28;20046;-76
2022/03/01 10:56:55;;;;;;;20.10;16.38;;;8.20;92.00;;;;;;4995163;28;20073;-76
2022/03/01 10:59:26;;;;;;;20.25;16.33;;;8.30;91.60;;;;;;4973699;28;20504;-76
2022/03/01 11:01:52;;;;;;;19.95;15.77;;;8.40;91.20;;;;;;4986592;28;20097;-76
2022/03/01 11:04:21;;;;;;;18.35;15.27;;;8.50;91.30;;;;;;4993166;28;20125;-76
2022/03/01 11:06:48;;;;;;;22.00;16.65;;;8.60;91.30;;;;;;4979873;28;20057;-76
2022/03/01 11:09:15;;;;;;;18.73;16.02;;;8.70;91.00;;;;;;4963146;28;20053;-76
2022/03/01 11:11:43;;;;;;;20.10;16.60;;;8.80;90.50;;;;;;4979969;28;20046;-77
2022/03/01 11:14:11;;;;;;;17.95;15.65;;;8.80;88.40;;;;;;4976676;28;20132;-76
2022/03/01 11:17:24;;;;;;;19.75;15.48;;;8.70;90.00;;;;;;4972300;28;20120;-76
2022/03/01 11:19:59;;;;;;;19.42;15.98;;;8.70;89.00;;;;;;4956261;28;20244;-76
2022/03/01 11:22:46;;;;;;;20.40;16.52;;;8.70;89.70;;;;;;4990482;28;20045;-77
2022/03/01 11:25:17;;;;;;;18.67;15.30;;;8.70;90.40;;;;;;4977628;28;20305;-77
2022/03/01 11:27:49;;;;;;;20.65;15.95;;;8.80;90.00;;;;;;4985954;28;20512;-76
2022/03/01 11:30:17;;;;;;;18.88;15.63;;;8.80;89.00;;;;;;4981052;28;20460;-77
2022/03/01 11:32:45;;;;;;;18.73;15.18;;;8.80;89.20;;;;;;4990306;28;20038;-76
2022/03/01 11:35:19;;;;;;;21.80;16.27;;;8.90;89.10;;;;;;4987824;28;20114;-77
2022/03/01 11:37:46;;;;;;;19.58;15.38;;;8.90;89.40;;;;;;4971690;28;20310;-76
2022/03/01 11:40:33;;;;;;;20.67;16.13;;;8.90;90.00;;;;;;4991372;28;20042;-77
2022/03/01 11:43:16;;;;;;;19.35;15.88;;;9.10;88.90;;;;;;4982343;28;20527;-77
2022/03/01 11:45:53;;;;;;;19.67;16.10;;;9.10;87.30;;;;;;4974847;28;20202;-77
2022/03/01 11:48:21;;;;;;;19.13;15.65;;;9.20;85.20;;;;;;5008415;28;20046;-77
2022/03/01 11:51:03;;;;;;;19.00;15.45;;;9.20;86.00;;;;;;5002605;28;20089;-78
2022/03/01 11:53:33;;;;;;;19.83;15.25;;;9.20;85.70;;;;;;4977199;28;20133;-76
2022/03/01 11:55:59;;;;;;;18.00;15.60;;;9.20;86.20;;;;;;4987729;28;20042;-77
2022/03/01 11:58:26;;;;;;;18.55;15.05;;;9.40;85.40;;;;;;4987733;28;20124;-76
2022/03/01 12:00:53;;;;;;;19.50;15.63;;;9.40;84.40;;;;;;4973079;28;20192;-76
2022/03/01 12:03:22;;;;;;;20.45;16.35;;;9.50;84.70;;;;;;5010305;28;20079;-77
2022/03/01 12:05:49;;;;;;;19.88;15.82;;;9.60;86.40;;;;;;4984251;28;20250;-77
2022/03/01 12:08:17;;;;;;;19.85;15.60;;;9.60;84.80;;;;;;4970163;28;20038;-76
2022/03/01 12:10:54;;;;;;;20.10;15.10;;;9.70;84.00;;;;;;5001582;28;20115;-77
2022/03/01 12:13:20;;;;;;;20.17;15.95;;;9.70;82.00;;;;;;4977290;28;20041;-77
2022/03/01 12:15:55;;;;;;;19.52;15.85;;;9.70;81.70;;;;;;4997173;28;20520;-77
2022/03/01 12:18:29;;;;;;;19.55;15.45;;;9.60;80.60;;;;;;5006141;28;20054;-78
2022/03/01 12:21:04;;;;;;;18.00;15.30;;;9.50;80.40;;;;;;4992026;28;20049;-78
2022/03/01 12:23:33;;;;;;;19.08;14.98;;;9.40;81.50;;;;;;5005529;28;20125;-77
2022/03/01 12:26:01;;;;;;;20.77;16.63;;;9.20;80.00;;;;;;4990076;28;20042;-78
2022/03/01 12:28:37;;;;;;;21.95;17.15;;;9.30;82.40;;;;;;4976445;28;20042;-77
2022/03/01 12:31:20;;;;;;;20.27;17.50;;;9.20;83.30;;;;;;4987229;28;20049;-78
2022/03/01 12:33:59;;;;;;;19.85;15.98;;;9.30;83.60;;;;;;5004040;28;20077;-83
2022/03/01 12:36:34;;;;;;;21.30;17.40;;;9.20;83.70;;;;;;4998159;28;20046;-85
2022/03/01 12:39:10;;;;;;;22.30;16.77;;;9.30;85.60;;;;;;4998094;28;20056;-82
2022/03/01 12:41:36;;;;;;;20.92;16.65;;;9.30;84.20;;;;;;4989686;28;20038;-84